createdAt,value
2022-08-09T00:00:06.885Z,9.03
2022-08-09T00:00:35.265Z,9.03
2022-08-09T00:01:10.574Z,9.03
2022-08-09T00:01:43.083Z,9.03
2022-08-09T00:02:07.969Z,8.85
2022-08-09T00:02:47.300Z,9.03
2022-08-09T00:04:10.602Z,9.03
2022-08-09T00:04:43.355Z,9.03
2022-08-09T00:06:19.162Z,9.03
2022-08-09T00:06:47.230Z,9.03
2022-08-09T00:07:18.089Z,9.11
2022-08-09T00:07:48.866Z,9.11
2022-08-09T00:08:31.863Z,9.11
2022-08-09T00:08:51.973Z,9.06
2022-08-09T00:09:22.258Z,9.06
2022-08-09T00:09:52.918Z,9.06
2022-08-09T00:10:24.603Z,8.95
2022-08-09T00:10:55.152Z,8.95
2022-08-09T00:11:55.079Z,9.03
2022-08-09T00:12:34.760Z,9.03
2022-08-09T00:12:59.203Z,9.03
2022-08-09T00:13:31.699Z,9.20
2022-08-09T00:14:00.866Z,9.08
2022-08-09T00:14:37.879Z,9.08
2022-08-09T00:15:06.913Z,8.97
2022-08-09T00:15:57.889Z,8.97
2022-08-09T00:16:38.339Z,8.93
2022-08-09T00:17:06.886Z,8.93
2022-08-09T00:18:05.151Z,8.93
2022-08-09T00:18:41.101Z,8.93
2022-08-09T00:19:11.154Z,9.00
2022-08-09T00:19:41.970Z,9.00
2022-08-09T00:20:13.022Z,9.00
2022-08-09T00:20:49.859Z,9.00
2022-08-09T00:21:15.042Z,9.00
2022-08-09T00:21:56.661Z,9.00
2022-08-09T00:22:18.166Z,9.00
2022-08-09T00:22:48.335Z,8.89
2022-08-09T00:23:55.134Z,8.89
2022-08-09T00:24:20.924Z,8.89
2022-08-09T00:24:51.983Z,8.77
2022-08-09T00:25:32.725Z,8.77
2022-08-09T00:25:54.095Z,8.77
2022-08-09T00:26:30.149Z,8.77
2022-08-09T00:26:56.114Z,8.67
2022-08-09T00:27:27.745Z,8.67
2022-08-09T00:27:58.270Z,8.67
2022-08-09T00:28:29.179Z,8.67
2022-08-09T00:29:00.892Z,8.80
2022-08-09T00:29:39.134Z,8.80
2022-08-09T00:30:35.909Z,8.62
2022-08-09T00:31:46.729Z,8.62
2022-08-09T00:32:37.426Z,8.62
2022-08-09T00:33:08.086Z,8.62
2022-08-09T00:33:50.682Z,8.80
2022-08-09T00:34:11.092Z,8.80
2022-08-09T00:34:46.372Z,8.80
2022-08-09T00:35:11.978Z,8.80
2022-08-09T00:35:43.788Z,8.80
2022-08-09T00:36:14.132Z,8.69
2022-08-09T00:36:45.072Z,8.69
2022-08-09T00:37:15.818Z,8.69
2022-08-09T00:37:47.248Z,8.69
2022-08-09T00:38:21.453Z,8.69
2022-08-09T00:38:51.274Z,8.69
2022-08-09T00:40:09.172Z,8.86
2022-08-09T00:40:30.133Z,8.86
2022-08-09T00:40:53.671Z,8.86
2022-08-09T00:44:15.308Z,8.86
2022-08-09T00:45:16.177Z,8.69
2022-08-09T00:45:34.697Z,8.80
2022-08-09T00:46:04.876Z,8.80
2022-08-09T00:46:55.951Z,8.80
2022-08-09T00:47:39.731Z,8.85
2022-08-09T00:48:08.342Z,8.85
2022-08-09T00:48:39.312Z,8.85
2022-08-09T00:49:12.555Z,8.80
2022-08-09T00:49:55.225Z,8.80
2022-08-09T00:50:15.126Z,8.80
2022-08-09T00:50:45.111Z,8.80
2022-08-09T00:51:14.692Z,8.69
2022-08-09T00:51:56.007Z,8.86
2022-08-09T00:52:17.637Z,8.75
2022-08-09T00:52:47.496Z,8.75
2022-08-09T00:53:18.446Z,8.75
2022-08-09T00:53:48.260Z,8.75
2022-08-09T00:54:19.223Z,8.75
2022-08-09T00:54:51.038Z,8.75
2022-08-09T00:56:03.256Z,8.75
2022-08-09T00:56:22.938Z,8.92
2022-08-09T00:56:53.998Z,8.92
2022-08-09T00:57:34.974Z,8.75
2022-08-09T00:57:59.203Z,8.92
2022-08-09T00:58:27.797Z,8.92
2022-08-09T00:58:58.179Z,8.92
2022-08-09T00:59:40.414Z,8.75
2022-08-09T01:00:20.493Z,8.75
2022-08-09T01:00:31.044Z,8.75
2022-08-09T01:01:02.082Z,8.75
2022-08-09T01:01:44.754Z,8.75
2022-08-09T01:02:03.826Z,8.75
2022-08-09T01:02:35.149Z,8.75
2022-08-09T01:03:06.176Z,8.75
2022-08-09T01:03:40.822Z,8.75
2022-08-09T01:04:07.991Z,8.75
2022-08-09T01:04:39.111Z,8.75
2022-08-09T01:05:13.689Z,8.75
2022-08-09T01:05:53.301Z,8.75
2022-08-09T01:06:13.880Z,8.75
2022-08-09T01:06:53.465Z,8.75
2022-08-09T01:07:14.155Z,8.64
2022-08-09T01:08:01.166Z,8.64
2022-08-09T01:08:16.246Z,8.64
2022-08-09T01:08:49.425Z,8.64
2022-08-09T01:09:18.159Z,8.80
2022-08-09T01:09:49.102Z,8.70
2022-08-09T01:10:21.119Z,8.70
2022-08-09T01:10:51.271Z,8.70
2022-08-09T01:11:22.063Z,8.70
2022-08-09T01:11:55.973Z,8.65
2022-08-09T01:12:24.146Z,8.65
2022-08-09T01:12:55.041Z,8.65
2022-08-09T01:13:31.160Z,8.65
2022-08-09T01:13:59.103Z,8.71
2022-08-09T01:14:28.296Z,8.71
2022-08-09T01:14:59.123Z,8.71
2022-08-09T01:15:33.656Z,8.71
2022-08-09T01:16:00.895Z,8.71
2022-08-09T01:16:32.185Z,8.71
2022-08-09T01:17:03.219Z,8.71
2022-08-09T01:17:34.448Z,8.71
2022-08-09T01:18:05.172Z,8.71
2022-08-09T01:18:36.082Z,8.71
2022-08-09T01:19:17.001Z,8.71
2022-08-09T01:20:09.014Z,8.71
2022-08-09T01:20:41.151Z,8.71
2022-08-09T01:21:11.059Z,8.71
2022-08-09T01:21:45.133Z,8.71
2022-08-09T01:22:16.480Z,8.82
2022-08-09T01:22:44.095Z,8.82
2022-08-09T01:24:02.524Z,8.82
2022-08-09T01:24:17.109Z,8.65
2022-08-09T01:24:50.373Z,8.65
2022-08-09T01:25:19.388Z,8.70
2022-08-09T01:25:51.309Z,8.70
2022-08-09T01:26:20.975Z,8.70
2022-08-09T01:26:52.945Z,8.70
2022-08-09T01:27:23.081Z,8.65
2022-08-09T01:27:54.012Z,8.65
2022-08-09T01:28:26.038Z,8.65
2022-08-09T01:28:56.131Z,8.82
2022-08-09T01:29:28.104Z,8.82
2022-08-09T01:29:57.918Z,8.82
2022-08-09T01:30:35.554Z,8.82
2022-08-09T01:31:00.822Z,8.82
2022-08-09T01:32:29.868Z,8.82
2022-08-09T01:33:04.149Z,8.86
2022-08-09T01:33:35.183Z,8.86
2022-08-09T01:34:05.950Z,8.86
2022-08-09T01:34:37.702Z,8.86
2022-08-09T01:35:28.497Z,8.86
2022-08-09T01:35:39.259Z,8.86
2022-08-09T01:36:11.135Z,8.86
2022-08-09T01:36:41.085Z,8.86
2022-08-09T01:37:12.134Z,8.86
2022-08-09T01:38:08.311Z,8.86
2022-08-09T01:38:46.558Z,8.82
2022-08-09T01:39:16.049Z,8.82
2022-08-09T01:39:46.902Z,8.82
2022-08-09T01:40:23.109Z,8.82
2022-08-09T01:40:52.423Z,8.82
2022-08-09T01:41:25.960Z,8.82
2022-08-09T01:41:53.602Z,8.82
2022-08-09T01:42:22.226Z,8.71
2022-08-09T01:42:52.971Z,8.71
2022-08-09T01:43:24.379Z,8.71
2022-08-09T01:43:55.255Z,8.88
2022-08-09T01:44:26.262Z,8.71
2022-08-09T01:44:57.079Z,8.82
2022-08-09T01:45:30.721Z,8.86
2022-08-09T01:45:59.189Z,8.70
2022-08-09T01:46:31.696Z,8.86
2022-08-09T01:47:01.023Z,8.82
2022-08-09T01:47:31.869Z,8.82
2022-08-09T01:48:06.069Z,8.82
2022-08-09T01:48:34.121Z,8.82
2022-08-09T01:49:10.783Z,8.82
2022-08-09T01:49:39.245Z,8.71
2022-08-09T01:50:07.892Z,8.71
2022-08-09T01:50:42.020Z,8.71
2022-08-09T01:51:09.086Z,8.71
2022-08-09T01:51:42.737Z,8.88
2022-08-09T01:52:11.250Z,8.77
2022-08-09T01:52:43.421Z,8.77
2022-08-09T01:53:19.563Z,8.77
2022-08-09T01:53:44.104Z,8.77
2022-08-09T01:54:15.143Z,8.77
2022-08-09T01:54:46.011Z,8.77
2022-08-09T01:55:16.848Z,8.77
2022-08-09T01:55:48.067Z,8.77
2022-08-09T01:56:19.133Z,8.77
2022-08-09T01:56:51.678Z,8.77
2022-08-09T01:57:21.678Z,8.77
2022-08-09T01:57:53.063Z,8.77
2022-08-09T01:58:24.228Z,8.77
2022-08-09T01:58:54.183Z,8.77
2022-08-09T01:59:25.211Z,8.77
2022-08-09T02:00:00.077Z,8.88
2022-08-09T02:00:34.750Z,8.88
2022-08-09T02:00:58.042Z,8.98
2022-08-09T02:01:30.627Z,8.82
2022-08-09T02:02:32.507Z,8.86
2022-08-09T02:03:01.985Z,8.86
2022-08-09T02:03:33.219Z,8.86
2022-08-09T02:04:04.195Z,8.86
2022-08-09T02:04:35.182Z,8.86
2022-08-09T02:05:15.516Z,8.86
2022-08-09T02:05:53.700Z,8.86
2022-08-09T02:06:39.159Z,8.86
2022-08-09T02:07:17.944Z,8.82
2022-08-09T02:08:39.946Z,8.82
2022-08-09T02:09:14.134Z,8.71
2022-08-09T02:09:44.951Z,8.71
2022-08-09T02:10:16.134Z,8.88
2022-08-09T02:10:51.251Z,8.88
2022-08-09T02:11:17.941Z,8.77
2022-08-09T02:11:48.845Z,8.77
2022-08-09T02:12:21.368Z,8.81
2022-08-09T02:12:50.943Z,8.81
2022-08-09T02:13:22.207Z,8.81
2022-08-09T02:14:06.294Z,8.65
2022-08-09T02:14:25.520Z,8.65
2022-08-09T02:14:55.765Z,8.65
2022-08-09T02:15:36.185Z,8.65
2022-08-09T02:15:57.278Z,8.65
2022-08-09T02:16:33.732Z,8.81
2022-08-09T02:18:00.057Z,8.70
2022-08-09T02:18:32.057Z,8.70
2022-08-09T02:19:03.110Z,8.70
2022-08-09T02:19:38.737Z,8.70
2022-08-09T02:20:05.075Z,8.70
2022-08-09T02:20:36.104Z,8.70
2022-08-09T02:21:07.067Z,8.70
2022-08-09T02:21:38.336Z,8.70
2022-08-09T02:22:09.130Z,8.70
2022-08-09T02:22:41.364Z,8.87
2022-08-09T02:23:11.390Z,8.87
2022-08-09T02:23:42.986Z,8.65
2022-08-09T02:24:13.035Z,8.82
2022-08-09T02:24:44.041Z,8.82
2022-08-09T02:25:17.124Z,8.82
2022-08-09T02:25:49.522Z,8.82
2022-08-09T02:26:25.079Z,8.82
2022-08-09T02:26:48.130Z,8.82
2022-08-09T02:27:18.954Z,8.87
2022-08-09T02:27:57.786Z,8.87
2022-08-09T02:28:21.119Z,8.87
2022-08-09T02:28:51.998Z,8.87
2022-08-09T02:29:23.065Z,8.87
2022-08-09T02:29:54.232Z,8.87
2022-08-09T02:30:27.867Z,8.87
2022-08-09T02:30:56.229Z,8.87
2022-08-09T02:31:27.056Z,8.87
2022-08-09T02:31:58.124Z,8.87
2022-08-09T02:32:28.808Z,8.87
2022-08-09T02:33:01.258Z,8.81
2022-08-09T02:33:37.849Z,8.81
2022-08-09T02:34:07.373Z,8.81
2022-08-09T02:34:41.257Z,8.81
2022-08-09T02:35:17.146Z,8.81
2022-08-09T02:36:02.925Z,8.92
2022-08-09T02:36:37.127Z,8.92
2022-08-09T02:37:08.077Z,8.92
2022-08-09T02:37:39.179Z,8.92
2022-08-09T02:38:11.248Z,8.92
2022-08-09T02:38:41.097Z,8.92
2022-08-09T02:39:14.455Z,8.92
2022-08-09T02:39:44.564Z,8.92
2022-08-09T02:40:14.146Z,8.77
2022-08-09T02:40:45.023Z,8.92
2022-08-09T02:41:16.130Z,8.92
2022-08-09T02:41:46.964Z,8.92
2022-08-09T02:42:18.627Z,8.92
2022-08-09T02:42:51.135Z,8.92
2022-08-09T02:43:21.239Z,8.92
2022-08-09T02:43:54.634Z,8.92
2022-08-09T02:44:29.596Z,8.92
2022-08-09T02:44:53.330Z,8.92
2022-08-09T02:45:28.844Z,8.92
2022-08-09T02:45:55.034Z,8.92
2022-08-09T02:46:27.675Z,8.92
2022-08-09T02:46:57.036Z,8.92
2022-08-09T02:47:27.980Z,8.92
2022-08-09T02:47:59.699Z,8.92
2022-08-09T02:48:31.713Z,8.92
2022-08-09T02:49:01.161Z,8.92
2022-08-09T02:49:38.501Z,8.92
2022-08-09T02:50:02.835Z,8.92
2022-08-09T02:50:34.038Z,8.92
2022-08-09T02:51:05.155Z,8.81
2022-08-09T02:51:40.136Z,8.81
2022-08-09T02:52:06.962Z,8.81
2022-08-09T02:52:37.970Z,8.81
2022-08-09T02:56:48.764Z,8.70
2022-08-09T02:57:23.544Z,8.70
2022-08-09T02:58:32.277Z,8.87
2022-08-09T02:58:51.119Z,8.87
2022-08-09T02:59:25.826Z,8.87
2022-08-09T03:00:20.604Z,8.82
2022-08-09T03:00:58.557Z,8.82
2022-08-09T03:01:42.804Z,8.82
2022-08-09T03:02:27.164Z,8.82
2022-08-09T03:03:00.189Z,8.82
2022-08-09T03:04:12.227Z,8.87
2022-08-09T03:04:31.066Z,8.82
2022-08-09T03:05:01.930Z,8.82
2022-08-09T03:05:34.350Z,8.82
2022-08-09T03:06:04.086Z,8.82
2022-08-09T03:06:34.854Z,8.82
2022-08-09T03:07:14.396Z,8.82
2022-08-09T03:07:37.061Z,8.82
2022-08-09T03:08:08.084Z,8.82
2022-08-09T03:08:39.151Z,8.82
2022-08-09T03:09:11.026Z,8.82
2022-08-09T03:09:42.620Z,8.82
2022-08-09T03:10:12.038Z,8.82
2022-08-09T03:10:43.848Z,8.82
2022-08-09T03:11:14.052Z,8.82
2022-08-09T03:12:16.088Z,8.71
2022-08-09T03:12:49.453Z,8.71
2022-08-09T03:13:18.043Z,8.71
2022-08-09T03:13:59.692Z,8.71
2022-08-09T03:14:21.844Z,8.71
2022-08-09T03:14:51.025Z,8.71
2022-08-09T03:15:24.970Z,8.71
2022-08-09T03:16:24.103Z,8.71
2022-08-09T03:16:54.868Z,8.87
2022-08-09T03:17:27.160Z,8.71
2022-08-09T03:17:58.898Z,8.71
2022-08-09T03:18:30.996Z,8.71
2022-08-09T03:18:59.064Z,8.71
2022-08-09T03:22:05.181Z,8.82
2022-08-09T03:22:42.225Z,8.82
2022-08-09T03:23:15.329Z,8.82
2022-08-09T03:23:38.152Z,8.98
2022-08-09T03:24:09.963Z,8.87
2022-08-09T03:24:42.367Z,8.87
2022-08-09T03:25:26.955Z,8.87
2022-08-09T03:26:12.993Z,8.87
2022-08-09T03:26:45.199Z,8.87
2022-08-09T03:27:17.037Z,8.87
2022-08-09T03:27:46.001Z,8.87
2022-08-09T03:28:16.993Z,8.87
2022-08-09T03:28:47.901Z,8.77
2022-08-09T03:29:22.626Z,8.77
2022-08-09T03:29:57.768Z,8.77
2022-08-09T03:30:29.689Z,8.77
2022-08-09T03:30:52.084Z,8.77
2022-08-09T03:31:23.128Z,8.65
2022-08-09T03:32:00.346Z,8.65
2022-08-09T03:32:24.949Z,8.65
2022-08-09T03:32:56.105Z,8.65
2022-08-09T03:33:27.011Z,8.65
2022-08-09T03:34:29.168Z,8.65
2022-08-09T03:35:00.907Z,8.65
2022-08-09T03:36:13.804Z,8.80
2022-08-09T03:36:33.097Z,8.69
2022-08-09T03:37:54.388Z,8.69
2022-08-09T03:38:06.111Z,8.69
2022-08-09T03:38:37.224Z,8.69
2022-08-09T03:39:08.167Z,8.69
2022-08-09T03:39:39.163Z,8.69
2022-08-09T03:40:13.260Z,8.69
2022-08-09T03:40:40.968Z,8.69
2022-08-09T03:41:15.666Z,8.69
2022-08-09T03:41:45.763Z,8.69
2022-08-09T03:42:14.697Z,8.69
2022-08-09T03:42:45.075Z,8.69
2022-08-09T03:43:16.126Z,8.69
2022-08-09T03:43:51.897Z,8.69
2022-08-09T03:44:18.022Z,8.69
2022-08-09T03:44:49.112Z,8.69
2022-08-09T03:46:04.705Z,8.69
2022-08-09T03:46:53.028Z,8.69
2022-08-09T03:47:23.959Z,8.69
2022-08-09T03:47:55.115Z,8.69
2022-08-09T03:48:30.848Z,8.69
2022-08-09T03:48:57.036Z,8.64
2022-08-09T03:49:29.956Z,8.64
2022-08-09T03:49:59.280Z,8.64
2022-08-09T03:50:31.852Z,8.64
2022-08-09T03:51:01.030Z,8.64
2022-08-09T03:51:55.889Z,8.64
2022-08-09T03:52:34.224Z,8.54
2022-08-09T03:53:05.301Z,8.69
2022-08-09T03:53:37.152Z,8.69
2022-08-09T03:54:11.142Z,8.69
2022-08-09T03:54:38.453Z,8.54
2022-08-09T03:55:09.752Z,8.54
2022-08-09T03:55:42.294Z,8.69
2022-08-09T03:56:11.016Z,8.54
2022-08-09T03:56:42.074Z,8.54
2022-08-09T03:57:19.798Z,8.54
2022-08-09T03:57:44.707Z,8.58
2022-08-09T03:58:20.925Z,8.58
2022-08-09T03:58:46.067Z,8.58
2022-08-09T03:59:20.945Z,8.58
2022-08-09T03:59:53.650Z,8.58
2022-08-09T04:00:22.089Z,8.69
2022-08-09T04:00:56.394Z,8.69
2022-08-09T04:01:21.131Z,8.69
2022-08-09T04:01:52.229Z,8.69
2022-08-09T04:02:26.746Z,8.58
2022-08-09T04:02:54.040Z,8.58
2022-08-09T04:03:45.791Z,8.58
2022-08-09T04:04:27.167Z,8.58
2022-08-09T04:04:58.414Z,8.46
2022-08-09T04:05:29.036Z,8.46
2022-08-09T04:06:01.070Z,8.46
2022-08-09T04:06:31.001Z,8.46
2022-08-09T04:07:01.936Z,8.46
2022-08-09T04:07:47.488Z,8.46
2022-08-09T04:08:34.884Z,8.46
2022-08-09T04:09:13.656Z,8.46
2022-08-09T04:10:08.230Z,8.63
2022-08-09T04:10:39.149Z,8.63
2022-08-09T04:11:11.323Z,8.63
2022-08-09T04:11:41.468Z,8.63
2022-08-09T04:12:31.034Z,8.46
2022-08-09T04:13:14.208Z,8.46
2022-08-09T04:14:52.952Z,8.46
2022-08-09T04:15:39.180Z,8.46
2022-08-09T04:16:51.399Z,8.46
2022-08-09T04:17:22.360Z,8.46
2022-08-09T04:17:53.444Z,8.46
2022-08-09T04:18:25.073Z,8.46
2022-08-09T04:18:55.353Z,8.46
2022-08-09T04:19:42.601Z,8.46
2022-08-09T04:19:57.416Z,8.46
2022-08-09T04:20:28.964Z,8.46
2022-08-09T04:20:59.157Z,8.46
2022-08-09T04:21:31.467Z,8.46
2022-08-09T04:22:01.452Z,8.46
2022-08-09T04:22:32.722Z,8.46
2022-08-09T04:23:03.156Z,8.46
2022-08-09T04:23:34.342Z,8.46
2022-08-09T04:24:05.469Z,8.46
2022-08-09T04:24:36.364Z,8.46
2022-08-09T04:25:09.285Z,8.46
2022-08-09T04:25:38.367Z,8.46
2022-08-09T04:26:09.403Z,8.46
2022-08-09T04:26:41.317Z,8.46
2022-08-09T04:27:11.110Z,8.46
2022-08-09T04:27:42.205Z,8.46
2022-08-09T04:28:13.271Z,8.46
2022-08-09T04:28:46.941Z,8.46
2022-08-09T04:29:15.760Z,8.46
2022-08-09T04:29:49.539Z,8.46
2022-08-09T04:30:20.923Z,8.46
2022-08-09T04:30:48.271Z,8.46
2022-08-09T04:31:19.495Z,8.46
2022-08-09T04:31:51.091Z,8.46
2022-08-09T04:32:31.619Z,8.46
2022-08-09T04:32:52.258Z,8.46
2022-08-09T04:33:23.171Z,8.46
2022-08-09T04:33:57.048Z,8.46
2022-08-09T04:34:30.645Z,8.46
2022-08-09T04:34:57.508Z,8.46
2022-08-09T04:35:27.674Z,8.46
2022-08-09T04:35:58.361Z,8.46
2022-08-09T04:36:29.262Z,8.46
2022-08-09T04:37:01.447Z,8.46
2022-08-09T04:37:45.176Z,8.46
2022-08-09T04:38:03.748Z,8.46
2022-08-09T04:38:33.197Z,8.46
2022-08-09T04:39:04.221Z,8.46
2022-08-09T04:39:40.638Z,8.46
2022-08-09T04:40:06.319Z,8.46
2022-08-09T04:40:37.339Z,8.46
2022-08-09T04:41:09.774Z,8.46
2022-08-09T04:41:43.698Z,8.46
2022-08-09T04:42:11.369Z,8.46
2022-08-09T04:42:41.395Z,8.46
2022-08-09T04:43:12.736Z,8.46
2022-08-09T04:43:54.015Z,8.46
2022-08-09T04:44:49.190Z,8.46
2022-08-09T04:45:20.448Z,8.46
2022-08-09T04:45:54.014Z,8.46
2022-08-09T04:46:19.252Z,8.46
2022-08-09T04:46:58.604Z,8.46
2022-08-09T04:47:21.370Z,8.46
2022-08-09T04:48:00.893Z,8.46
2022-08-09T04:48:23.890Z,8.46
2022-08-09T04:48:57.709Z,8.46
2022-08-09T04:49:40.500Z,8.46
2022-08-09T04:50:31.943Z,8.46
2022-08-09T04:50:57.023Z,8.46
2022-08-09T04:51:28.000Z,8.46
2022-08-09T04:51:59.307Z,8.46
2022-08-09T04:52:31.123Z,8.46
2022-08-09T04:53:01.772Z,8.46
2022-08-09T04:53:32.427Z,8.58
2022-08-09T04:54:03.478Z,8.58
2022-08-09T04:54:34.312Z,8.58
2022-08-09T04:55:07.022Z,8.58
2022-08-09T04:55:39.377Z,8.58
2022-08-09T04:56:07.339Z,8.58
2022-08-09T04:56:38.401Z,8.58
2022-08-09T04:57:09.388Z,8.69
2022-08-09T04:57:59.045Z,8.69
2022-08-09T04:58:11.447Z,8.69
2022-08-09T04:58:42.217Z,8.69
2022-08-09T05:01:48.301Z,8.69
2022-08-09T05:02:19.356Z,8.69
2022-08-09T05:02:52.465Z,8.69
2022-08-09T05:03:40.435Z,8.69
2022-08-09T05:03:56.827Z,8.69
2022-08-09T05:04:23.436Z,8.69
2022-08-09T05:04:56.022Z,8.69
2022-08-09T05:05:31.809Z,8.69
2022-08-09T05:09:02.374Z,8.69
2022-08-09T05:09:42.050Z,8.69
2022-08-09T05:10:04.416Z,8.80
2022-08-09T05:10:36.811Z,8.80
2022-08-09T05:11:06.667Z,8.65
2022-08-09T05:11:37.369Z,8.77
2022-08-09T05:12:08.345Z,8.77
2022-08-09T05:12:39.115Z,8.71
2022-08-09T05:13:11.432Z,8.82
2022-08-09T05:13:41.451Z,8.87
2022-08-09T05:14:12.326Z,8.81
2022-08-09T05:14:43.178Z,8.92
2022-08-09T05:15:24.673Z,8.92
2022-08-09T05:16:16.432Z,8.92
2022-08-09T05:16:58.936Z,9.03
2022-08-09T05:18:37.690Z,8.88
2022-08-09T05:18:58.745Z,8.98
2022-08-09T05:19:24.346Z,8.98
2022-08-09T05:19:56.852Z,9.14
2022-08-09T05:20:24.026Z,9.14
2022-08-09T05:20:55.338Z,9.14
2022-08-09T05:21:29.682Z,9.14
2022-08-09T05:21:57.118Z,9.14
2022-08-09T05:22:35.005Z,9.14
2022-08-09T05:24:32.363Z,8.98
2022-08-09T05:25:03.144Z,9.03
2022-08-09T05:25:34.245Z,9.03
2022-08-09T05:26:05.122Z,8.97
2022-08-09T05:26:45.384Z,8.97
2022-08-09T05:27:07.307Z,9.09
2022-08-09T05:27:45.340Z,9.20
2022-08-09T05:28:09.244Z,9.14
2022-08-09T05:28:41.261Z,9.14
2022-08-09T05:29:17.291Z,9.19
2022-08-09T05:29:42.506Z,9.02
2022-08-09T05:30:17.777Z,9.02
2022-08-09T05:30:47.766Z,9.13
2022-08-09T05:31:15.394Z,9.30
2022-08-09T05:31:49.267Z,9.13
2022-08-09T05:32:17.111Z,9.13
2022-08-09T05:32:50.909Z,9.35
2022-08-09T05:33:19.406Z,9.29
2022-08-09T05:33:52.474Z,9.16
2022-08-09T05:36:56.290Z,9.23
2022-08-09T05:37:27.540Z,9.56
2022-08-09T05:37:58.390Z,9.56
2022-08-09T05:38:29.250Z,9.93
2022-08-09T05:39:01.489Z,9.74
2022-08-09T05:39:36.368Z,9.56
2022-08-09T05:40:02.356Z,9.56
2022-08-09T05:40:33.290Z,9.45
2022-08-09T05:41:03.984Z,9.64
2022-08-09T05:41:35.241Z,9.64
2022-08-09T05:42:06.486Z,9.70
2022-08-09T05:42:37.565Z,9.60
2022-08-09T05:43:08.516Z,9.60
2022-08-09T05:46:14.679Z,9.64
2022-08-09T05:46:45.471Z,9.45
2022-08-09T05:47:16.890Z,9.36
2022-08-09T05:47:52.481Z,9.47
2022-08-09T05:48:18.609Z,9.66
2022-08-09T05:48:58.931Z,9.66
2022-08-09T05:50:19.570Z,10.03
2022-08-09T05:51:16.735Z,9.52
2022-08-09T05:51:55.578Z,9.82
2022-08-09T05:52:26.674Z,9.64
2022-08-09T05:52:57.618Z,9.74
2022-08-09T05:53:33.465Z,9.66
2022-08-09T05:53:59.663Z,9.71
2022-08-09T05:54:31.707Z,9.82
2022-08-09T05:55:03.017Z,10.00
2022-08-09T05:55:32.576Z,10.19
2022-08-09T05:56:03.560Z,10.19
2022-08-09T05:56:34.514Z,10.00
2022-08-09T05:57:06.328Z,10.00
2022-08-09T05:57:50.927Z,9.82
2022-08-09T05:58:07.669Z,9.94
2022-08-09T05:58:38.536Z,10.15
2022-08-09T05:59:09.496Z,10.31
2022-08-09T05:59:41.826Z,10.11
2022-08-09T06:00:14.383Z,10.11
2022-08-09T06:00:42.730Z,10.22
2022-08-09T06:01:16.019Z,10.04
2022-08-09T06:01:44.484Z,9.95
2022-08-09T06:02:17.070Z,10.10
2022-08-09T06:02:47.035Z,10.12
2022-08-09T06:03:20.092Z,10.23
2022-08-09T06:03:58.214Z,10.23
2022-08-09T06:04:23.447Z,10.34
2022-08-09T06:04:51.614Z,10.34
2022-08-09T06:05:30.578Z,10.34
2022-08-09T06:06:23.601Z,10.28
2022-08-09T06:06:54.527Z,10.28
2022-08-09T06:07:25.654Z,10.39
2022-08-09T06:08:05.362Z,10.00
2022-08-09T06:08:27.670Z,10.30
2022-08-09T06:08:58.680Z,10.30
2022-08-09T06:09:55.079Z,10.71
2022-08-09T06:10:31.632Z,10.61
2022-08-09T06:11:02.554Z,10.61
2022-08-09T06:11:40.939Z,10.39
2022-08-09T06:12:35.763Z,10.56
2022-08-09T06:13:12.337Z,10.48
2022-08-09T06:13:39.430Z,10.58
2022-08-09T06:14:08.676Z,10.47
2022-08-09T06:14:39.394Z,10.73
2022-08-09T06:15:14.402Z,10.63
2022-08-09T06:15:41.400Z,10.63
2022-08-09T06:16:12.544Z,10.63
2022-08-09T06:16:43.787Z,10.41
2022-08-09T06:17:14.440Z,10.53
2022-08-09T06:17:46.792Z,10.74
2022-08-09T06:18:16.778Z,10.57
2022-08-09T06:18:47.957Z,10.68
2022-08-09T06:19:18.401Z,10.89
2022-08-09T06:19:49.291Z,10.89
2022-08-09T06:20:21.529Z,10.79
2022-08-09T06:20:54.831Z,11.00
2022-08-09T06:21:22.778Z,11.00
2022-08-09T06:21:58.800Z,10.95
2022-08-09T06:22:28.963Z,10.95
2022-08-09T06:22:55.713Z,10.79
2022-08-09T06:23:57.715Z,10.79
2022-08-09T06:24:28.496Z,10.89
2022-08-09T06:24:59.654Z,10.89
2022-08-09T06:25:31.782Z,11.11
2022-08-09T06:26:01.554Z,11.11
2022-08-09T06:26:32.542Z,11.00
2022-08-09T06:27:03.806Z,11.00
2022-08-09T06:27:42.136Z,11.21
2022-08-09T06:28:05.669Z,11.21
2022-08-09T06:28:36.756Z,11.21
2022-08-09T06:29:07.531Z,11.17
2022-08-09T06:29:48.104Z,11.37
2022-08-09T06:30:13.916Z,11.37
2022-08-09T06:30:43.253Z,11.37
2022-08-09T06:31:11.731Z,11.62
2022-08-09T06:32:08.443Z,11.32
2022-08-09T06:33:00.184Z,11.44
2022-08-09T06:33:39.957Z,11.44
2022-08-09T06:34:17.447Z,11.44
2022-08-09T06:34:52.986Z,11.22
2022-08-09T06:35:19.494Z,11.33
2022-08-09T06:35:57.606Z,11.43
2022-08-09T06:36:27.282Z,11.65
2022-08-09T06:36:59.233Z,11.85
2022-08-09T06:37:23.569Z,11.65
2022-08-09T06:38:05.916Z,11.43
2022-08-09T06:38:37.241Z,11.43
2022-08-09T06:38:57.013Z,11.65
2022-08-09T06:39:38.872Z,11.26
2022-08-09T06:40:29.811Z,11.26
2022-08-09T06:41:01.525Z,11.26
2022-08-09T06:42:01.199Z,11.48
2022-08-09T06:42:33.982Z,11.70
2022-08-09T06:43:04.499Z,11.81
2022-08-09T06:43:35.581Z,11.59
2022-08-09T06:44:06.614Z,11.59
2022-08-09T06:44:37.745Z,12.02
2022-08-09T06:46:04.798Z,11.91
2022-08-09T06:48:45.948Z,11.29
2022-08-09T06:49:29.010Z,11.34
2022-08-09T06:50:14.969Z,12.00
2022-08-09T06:50:49.411Z,11.34
2022-08-09T06:51:21.824Z,11.79
2022-08-09T06:51:51.615Z,11.57
2022-08-09T06:52:29.311Z,12.00
2022-08-09T06:52:53.671Z,11.79
2022-08-09T06:53:24.524Z,11.34
2022-08-09T06:53:55.685Z,11.57
2022-08-09T06:54:26.440Z,11.57
2022-08-09T06:54:57.755Z,11.79
2022-08-09T06:55:28.620Z,11.34
2022-08-09T06:55:59.392Z,11.34
2022-08-09T06:56:31.794Z,11.34
2022-08-09T07:00:51.713Z,11.82
2022-08-09T07:01:51.955Z,11.68
2022-08-09T07:02:16.899Z,11.19
2022-08-09T07:02:42.563Z,11.78
2022-08-09T07:05:58.559Z,11.69
2022-08-09T07:06:19.557Z,11.56
2022-08-09T07:09:55.253Z,11.28
2022-08-09T07:10:31.156Z,11.38
2022-08-09T07:10:58.971Z,11.38
2022-08-09T07:19:15.036Z,10.41
2022-08-09T07:19:48.212Z,10.80
2022-08-09T07:20:16.463Z,10.24
2022-08-09T07:20:47.846Z,10.80
2022-08-09T07:21:18.745Z,10.61
2022-08-09T07:21:57.405Z,10.34
2022-08-09T07:22:34.246Z,10.34
2022-08-09T07:22:53.433Z,10.66
2022-08-09T07:23:22.802Z,10.76
2022-08-09T07:23:57.785Z,10.76
2022-08-09T07:24:32.691Z,11.16
2022-08-09T07:24:55.432Z,11.16
2022-08-09T07:25:26.649Z,10.31
2022-08-09T07:26:02.235Z,10.87
2022-08-09T07:26:28.692Z,10.60
2022-08-09T07:26:59.441Z,10.60
2022-08-09T07:27:33.907Z,11.16
2022-08-09T07:28:04.299Z,10.87
2022-08-09T07:28:34.653Z,10.87
2022-08-09T07:29:12.253Z,10.60
2022-08-09T07:29:37.979Z,10.41
2022-08-09T07:30:08.443Z,10.41
2022-08-09T07:30:36.592Z,10.51
2022-08-09T07:31:07.803Z,10.80
2022-08-09T07:31:38.755Z,10.80
2022-08-09T07:32:09.634Z,10.23
2022-08-09T07:32:42.773Z,10.56
2022-08-09T07:35:53.303Z,10.66
2022-08-09T07:36:17.600Z,10.66
2022-08-09T07:36:48.645Z,10.07
2022-08-09T07:37:22.405Z,10.48
2022-08-09T07:37:53.998Z,10.48
2022-08-09T07:38:21.575Z,10.48
2022-08-09T07:39:00.484Z,10.18
2022-08-09T07:39:40.830Z,10.48
2022-08-09T07:39:54.657Z,10.48
2022-08-09T07:40:46.425Z,10.48
2022-08-09T07:41:27.621Z,10.48
2022-08-09T07:41:58.761Z,10.48
2022-08-09T07:42:32.678Z,10.48
2022-08-09T07:43:01.449Z,10.48
2022-08-09T07:43:31.420Z,10.77
2022-08-09T07:44:02.601Z,10.28
2022-08-09T07:44:52.970Z,10.28
2022-08-09T07:45:22.872Z,10.58
2022-08-09T07:46:06.655Z,10.58
2022-08-09T07:46:37.612Z,10.58
2022-08-09T07:47:09.857Z,10.58
2022-08-09T07:48:00.649Z,10.38
2022-08-09T07:48:25.935Z,10.69
2022-08-09T07:48:41.609Z,10.43
2022-08-09T07:49:15.330Z,10.43
2022-08-09T07:50:04.388Z,10.43
2022-08-09T07:50:14.626Z,10.13
2022-08-09T07:50:52.935Z,10.73
2022-08-09T07:52:04.895Z,10.43
2022-08-09T07:52:18.734Z,10.13
2022-08-09T07:52:49.470Z,10.43
2022-08-09T07:53:45.167Z,10.38
2022-08-09T07:54:27.923Z,10.38
2022-08-09T07:54:53.672Z,10.38
2022-08-09T07:55:24.616Z,10.38
2022-08-09T07:56:03.617Z,10.43
2022-08-09T07:56:27.390Z,10.43
2022-08-09T07:56:58.472Z,10.43
2022-08-09T07:57:35.650Z,10.43
2022-08-09T07:57:59.542Z,10.43
2022-08-09T07:58:31.422Z,10.43
2022-08-09T07:59:01.708Z,10.53
2022-08-09T07:59:45.479Z,10.23
2022-08-09T08:00:08.650Z,10.53
2022-08-09T08:00:36.466Z,10.23
2022-08-09T08:01:06.257Z,10.23
2022-08-09T08:01:36.730Z,10.23
2022-08-09T08:02:07.542Z,10.23
2022-08-09T08:02:42.591Z,10.13
2022-08-09T08:03:09.864Z,10.43
2022-08-09T08:03:41.577Z,10.13
2022-08-09T08:04:11.665Z,10.13
2022-08-09T08:04:42.517Z,10.13
2022-08-09T08:05:17.643Z,10.38
2022-08-09T08:05:57.945Z,10.08
2022-08-09T08:06:15.705Z,10.28
2022-08-09T08:06:56.174Z,10.28
2022-08-09T08:08:43.231Z,10.28
2022-08-09T08:09:38.726Z,10.38
2022-08-09T08:09:55.245Z,10.13
2022-08-09T08:10:27.242Z,10.53